Time;durP1;ratioP1;P1;durP2;ratioP2;P2;SDS_P1;SDS_P2;PMS_P1;PMS_P2;Temp;Humidity;BMP_temperature;BMP_pressure;BME280_temperature;BME280_humidity;BME280_pressure;Samples;Min_cycle;Max_cycle;Signal;HPM_P1;HPM_P2
2023/07/24 00:00:18;;;;;;;;;;;;;;;20.12;57.04;98730.41;10329435;28;1961;-68
2023/07/24 00:05:13;;;;;;;;;;;;;;;20.13;57.09;98734.75;10328967;28;920;-68
2023/07/24 00:10:09;;;;;;;;;;;;;;;20.13;57.00;98725.97;10329533;28;805;-68
2023/07/24 00:15:05;;;;;;;;;;;;;;;20.12;57.06;98740.13;10328547;28;901;-68
2023/07/24 00:20:01;;;;;;;;;;;;;;;20.12;57.09;98727.78;10328965;28;1968;-68
2023/07/24 00:24:57;;;;;;;;;;;;;;;20.11;56.92;98718.13;10328226;28;774;-68
2023/07/24 00:29:53;;;;;;;;;;;;;;;20.12;56.85;98708.38;10328346;28;1105;-68
2023/07/24 00:34:49;;;;;;;;;;;;;;;20.11;56.99;98706.69;10328547;28;877;-68
2023/07/24 00:39:44;;;;;;;;;;;;;;;20.11;56.92;98706.69;10327489;28;1967;-68
2023/07/24 00:44:40;;;;;;;;;;;;;;;20.11;56.99;98698.75;10326715;28;924;-68
2023/07/24 00:49:37;;;;;;;;;;;;;;;20.09;56.96;98684.78;10327726;28;862;-68
2023/07/24 00:54:33;;;;;;;;;;;;;;;20.11;56.84;98674.94;10327536;28;841;-68
2023/07/24 00:59:28;;;;;;;;;;;;;;;20.10;56.84;98682.06;10326645;28;1894;-68
2023/07/24 01:04:24;;;;;;;;;;;;;;;20.10;56.92;98681.22;10327588;28;946;-68
2023/07/24 01:09:20;;;;;;;;;;;;;;;20.11;56.96;98677.59;10326476;28;905;-68
2023/07/24 01:14:16;;;;;;;;;;;;;;;20.10;56.90;98667.97;10326952;28;780;-68
2023/07/24 01:19:12;;;;;;;;;;;;;;;20.08;56.84;98662.78;10326168;28;1898;-68
2023/07/24 01:24:08;;;;;;;;;;;;;;;20.10;56.75;98662.69;10326056;28;858;-68
2023/07/24 01:29:04;;;;;;;;;;;;;;;20.09;56.83;98663.63;10325854;28;997;-68
2023/07/24 01:34:00;;;;;;;;;;;;;;;20.08;56.79;98656.66;10325920;28;1287;-68
2023/07/24 01:38:55;;;;;;;;;;;;;;;20.08;56.84;98646.06;10326449;28;1964;-68
2023/07/24 01:43:51;;;;;;;;;;;;;;;20.08;56.91;98635.50;10326489;28;813;-68
2023/07/24 01:48:48;;;;;;;;;;;;;;;20.07;56.94;98629.38;10325456;28;826;-68
2023/07/24 01:53:44;;;;;;;;;;;;;;;20.08;56.74;98622.25;10325879;28;775;-68
2023/07/24 01:58:39;;;;;;;;;;;;;;;20.08;56.75;98611.69;10325766;28;1950;-68
2023/07/24 02:03:35;;;;;;;;;;;;;;;20.07;56.80;98613.50;10325773;28;880;-68
2023/07/24 02:08:31;;;;;;;;;;;;;;;20.08;56.71;98606.41;10324436;28;1208;-68
2023/07/24 02:13:27;;;;;;;;;;;;;;;20.06;56.72;98605.66;10329073;28;781;-68
2023/07/24 02:18:23;;;;;;;;;;;;;;;20.06;56.74;98601.19;10333078;28;1943;-68
2023/07/24 02:23:19;;;;;;;;;;;;;;;20.07;56.84;98596.78;10333547;28;871;-68
2023/07/24 02:28:15;;;;;;;;;;;;;;;20.05;56.80;98583.66;10332572;28;841;-68
2023/07/24 02:33:11;;;;;;;;;;;;;;;20.05;56.75;98586.28;10332420;28;1259;-68
2023/07/24 02:38:06;;;;;;;;;;;;;;;20.05;56.63;98577.53;10332221;28;1910;-68
2023/07/24 02:43:02;;;;;;;;;;;;;;;20.04;56.79;98571.38;10332123;28;868;-68
2023/07/24 02:47:58;;;;;;;;;;;;;;;20.04;56.76;98574.03;10331257;28;920;-68
2023/07/24 02:52:54;;;;;;;;;;;;;;;20.04;56.78;98562.59;10332084;28;800;-68
2023/07/24 02:57:50;;;;;;;;;;;;;;;20.04;56.75;98554.66;10332193;28;1929;-68
2023/07/24 03:02:46;;;;;;;;;;;;;;;20.05;56.63;98556.34;10332475;28;909;-68
2023/07/24 03:07:42;;;;;;;;;;;;;;;20.03;56.50;98569.69;10331221;28;917;-68
2023/07/24 03:12:38;;;;;;;;;;;;;;;20.03;56.58;98553.81;10331791;28;880;-68
2023/07/24 03:17:33;;;;;;;;;;;;;;;20.03;56.44;98545.03;10330763;28;1909;-68
2023/07/24 03:22:29;;;;;;;;;;;;;;;20.02;56.61;98525.69;10331040;28;923;-68
2023/07/24 03:27:25;;;;;;;;;;;;;;;20.03;56.57;98510.66;10329236;28;1055;-68
2023/07/24 03:32:21;;;;;;;;;;;;;;;20.03;56.51;98523.88;10330245;28;1144;-68
2023/07/24 03:37:17;;;;;;;;;;;;;;;20.02;56.61;98535.44;10330103;28;1914;-68
2023/07/24 03:42:13;;;;;;;;;;;;;;;20.01;56.59;98523.13;10330589;28;861;-68
2023/07/24 03:47:09;;;;;;;;;;;;;;;20.02;56.82;98503.69;10330354;28;831;-68
2023/07/24 03:52:05;;;;;;;;;;;;;;;20.01;56.51;98504.63;10330243;28;921;-68
2023/07/24 03:57:00;;;;;;;;;;;;;;;20.02;56.62;98498.41;10329306;28;1898;-68
2023/07/24 04:01:56;;;;;;;;;;;;;;;20.00;56.49;98490.56;10329217;28;803;-68
2023/07/24 04:06:52;;;;;;;;;;;;;;;20.01;56.56;98492.22;10329008;28;771;-68
2023/07/24 04:11:48;;;;;;;;;;;;;;;20.00;56.58;98484.44;10329516;28;881;-68
2023/07/24 04:16:44;;;;;;;;;;;;;;;20.00;56.44;98477.34;10329078;28;1945;-68
2023/07/24 04:21:40;;;;;;;;;;;;;;;20.00;56.46;98484.44;10329046;28;864;-68
2023/07/24 04:26:36;;;;;;;;;;;;;;;19.99;56.63;98486.22;10328205;28;926;-68
2023/07/24 04:31:32;;;;;;;;;;;;;;;20.00;56.44;98484.44;10328210;28;1936;-68
2023/07/24 04:36:28;;;;;;;;;;;;;;;19.99;56.56;98483.59;10326845;28;1905;-68
2023/07/24 04:41:25;;;;;;;;;;;;;;;19.99;56.50;98483.59;10328063;28;1111;-68
2023/07/24 04:46:21;;;;;;;;;;;;;;;19.99;56.52;98488.00;10327972;28;908;-68
2023/07/24 04:51:18;;;;;;;;;;;;;;;19.98;56.53;98494.25;10327220;28;780;-68
2023/07/24 04:56:14;;;;;;;;;;;;;;;19.98;56.33;98488.97;10327553;28;876;-68
2023/07/24 05:01:10;;;;;;;;;;;;;;;19.97;56.46;98480.19;10326081;28;1973;-68
2023/07/24 05:06:06;;;;;;;;;;;;;;;19.97;56.46;98484.66;10326003;28;1189;-68
2023/07/24 05:11:01;;;;;;;;;;;;;;;19.97;56.44;98476.72;10326477;28;900;-68
2023/07/24 05:15:57;;;;;;;;;;;;;;;19.97;56.52;98489.94;10326257;28;778;-69
2023/07/24 05:20:53;;;;;;;;;;;;;;;19.97;56.42;98484.66;10326695;28;1894;-68
2023/07/24 05:25:49;;;;;;;;;;;;;;;19.96;56.53;98494.38;10325976;28;891;-68
2023/07/24 05:30:45;;;;;;;;;;;;;;;19.97;56.45;98487.31;10325851;28;1409;-68
2023/07/24 05:35:41;;;;;;;;;;;;;;;19.96;56.45;98494.38;10326346;28;844;-68
2023/07/24 05:40:39;;;;;;;;;;;;;;;19.96;56.60;98493.53;10326342;28;1918;-68
2023/07/24 05:45:35;;;;;;;;;;;;;;;19.95;56.43;98497.13;10326037;28;943;-68
2023/07/24 05:50:31;;;;;;;;;;;;;;;19.95;56.47;98500.63;10324441;28;975;-68
2023/07/24 05:55:27;;;;;;;;;;;;;;;19.95;56.67;98497.13;10326217;28;879;-68
2023/07/24 06:00:23;;;;;;;;;;;;;;;19.95;56.54;98502.44;10325378;28;1961;-68
2023/07/24 06:05:19;;;;;;;;;;;;;;;19.95;56.75;98513.00;10326049;28;849;-68
2023/07/24 06:10:15;;;;;;;;;;;;;;;19.94;56.61;98528.03;10325728;28;954;-68
2023/07/24 06:15:11;;;;;;;;;;;;;;;19.95;56.61;98550.88;10325015;28;805;-68
2023/07/24 06:20:07;;;;;;;;;;;;;;;19.94;56.59;98551.84;10325431;28;1897;-68
2023/07/24 06:25:03;;;;;;;;;;;;;;;19.94;56.57;98557.13;10325377;28;810;-68
2023/07/24 06:29:59;;;;;;;;;;;;;;;19.92;56.59;98541.34;10324540;28;1125;-70
2023/07/24 06:34:55;;;;;;;;;;;;;;;19.93;56.64;98545.69;10324713;28;913;-69
2023/07/24 06:39:51;;;;;;;;;;;;;;;19.92;56.59;98544.00;10324464;28;1906;-69
2023/07/24 06:44:46;;;;;;;;;;;;;;;19.93;56.64;98550.13;10324371;28;864;-69
2023/07/24 06:49:42;;;;;;;;;;;;;;;19.92;56.75;98543.16;10323652;28;1007;-70
2023/07/24 06:54:38;;;;;;;;;;;;;;;19.92;56.69;98546.66;10324264;28;811;-70
2023/07/24 06:59:34;;;;;;;;;;;;;;;19.91;57.18;98549.38;10328699;28;1898;-65
2023/07/24 07:04:30;;;;;;;;;;;;;;;19.98;56.94;98539.22;10332635;28;880;-65
2023/07/24 07:09:26;;;;;;;;;;;;;;;20.02;57.36;98535.44;10331796;28;967;-65
2023/07/24 07:14:22;;;;;;;;;;;;;;;20.03;57.23;98545.03;10330545;28;1027;-65
2023/07/24 07:19:18;;;;;;;;;;;;;;;20.06;57.21;98526.28;10331427;28;1901;-65
2023/07/24 07:24:13;;;;;;;;;;;;;;;20.08;57.42;98534.97;10330692;28;834;-66
2023/07/24 07:29:09;;;;;;;;;;;;;;;20.11;57.70;98532.94;10330362;28;1559;-66
2023/07/24 07:34:05;;;;;;;;;;;;;;;20.14;57.65;98523.94;10330304;28;1417;-65
2023/07/24 07:39:02;;;;;;;;;;;;;;;20.13;57.73;98503.75;10330409;28;1969;-65
2023/07/24 07:43:57;;;;;;;;;;;;;;;20.16;57.92;98490.28;10329981;28;854;-66
2023/07/24 07:48:53;;;;;;;;;;;;;;;20.17;57.90;98489.31;10330368;28;889;-65
2023/07/24 07:53:49;;;;;;;;;;;;;;;20.19;57.95;98494.50;10329604;28;969;-66
2023/07/24 07:58:45;;;;;;;;;;;;;;;20.19;58.02;98495.34;10329904;28;1949;-65
2023/07/24 08:03:41;;;;;;;;;;;;;;;20.19;58.01;98500.63;10329185;28;949;-66
2023/07/24 08:08:37;;;;;;;;;;;;;;;20.18;58.21;98501.59;10329907;28;798;-66
2023/07/24 08:13:33;;;;;;;;;;;;;;;20.19;58.27;98508.56;10328298;28;861;-66
2023/07/24 08:18:29;;;;;;;;;;;;;;;20.18;58.57;98493.66;10328533;28;1890;-66
2023/07/24 08:23:25;;;;;;;;;;;;;;;20.18;58.57;98487.53;10328294;28;781;-64
2023/07/24 08:28:20;;;;;;;;;;;;;;;20.17;58.16;98481.38;10328210;28;802;-66
2023/07/24 08:33:16;;;;;;;;;;;;;;;20.18;58.47;98493.66;10328846;28;1161;-66
2023/07/24 08:38:12;;;;;;;;;;;;;;;20.20;58.13;98493.53;10328503;28;1959;-65
2023/07/24 08:43:10;;;;;;;;;;;;;;;20.20;58.28;98482.94;10327588;28;797;-66
2023/07/24 08:48:06;;;;;;;;;;;;;;;20.19;58.45;98474.19;10327337;28;1005;-66
2023/07/24 08:53:02;;;;;;;;;;;;;;;20.21;58.17;98471.44;10327250;28;884;-65
2023/07/24 08:57:58;;;;;;;;;;;;;;;20.21;58.33;98485.50;10327325;28;1894;-66
2023/07/24 09:02:54;;;;;;;;;;;;;;;20.24;58.12;98476.50;10327661;28;945;-65
2023/07/24 09:07:50;;;;;;;;;;;;;;;20.26;58.19;98478.06;10327249;28;854;-65
2023/07/24 09:12:45;;;;;;;;;;;;;;;20.23;58.25;98478.31;10327264;28;798;-65
2023/07/24 09:17:41;;;;;;;;;;;;;;;20.23;58.13;98475.66;10326670;28;1889;-65
2023/07/24 09:22:37;;;;;;;;;;;;;;;20.22;58.18;98478.41;10325395;28;760;-65
2023/07/24 09:27:33;;;;;;;;;;;;;;;20.23;58.29;98477.47;10327344;28;884;-65
2023/07/24 09:32:31;;;;;;;;;;;;;;;20.24;58.19;98472.03;10326524;28;1300;-65
2023/07/24 09:37:27;;;;;;;;;;;;;;;20.23;58.06;98461.59;10325770;28;1969;-65
2023/07/24 09:42:23;;;;;;;;;;;;;;;20.21;58.13;98466.13;10325670;28;761;-66
2023/07/24 09:47:19;;;;;;;;;;;;;;;20.19;58.15;98468.88;10325361;28;916;-65
2023/07/24 09:52:14;;;;;;;;;;;;;;;20.19;58.22;98462.75;10325432;28;913;-66
2023/07/24 09:57:10;;;;;;;;;;;;;;;20.15;58.05;98464.81;10325402;28;1897;-66
2023/07/24 10:02:06;;;;;;;;;;;;;;;20.14;58.23;98477.16;10325880;28;802;-66
2023/07/24 10:07:02;;;;;;;;;;;;;;;20.15;58.19;98467.44;10325247;28;859;-64
2023/07/24 10:11:58;;;;;;;;;;;;;;;20.18;58.10;98461.91;10324501;28;865;-64
2023/07/24 10:16:55;;;;;;;;;;;;;;;20.28;57.93;98452.34;10325591;28;1953;-66
2023/07/24 10:21:51;;;;;;;;;;;;;;;20.25;58.12;98444.66;10325352;28;902;-65
2023/07/24 10:26:47;;;;;;;;;;;;;;;20.27;58.02;98450.63;10324790;28;944;-65
2023/07/24 10:31:43;;;;;;;;;;;;;;;20.27;57.96;98449.81;10324368;28;1374;-65
2023/07/24 10:36:40;;;;;;;;;;;;;;;20.26;57.94;98443.66;10332615;28;1973;-65
2023/07/24 10:41:36;;;;;;;;;;;;;;;20.25;58.19;98433.19;10332310;28;851;-65
2023/07/24 10:46:32;;;;;;;;;;;;;;;20.28;58.13;98436.47;10332160;28;799;-65
2023/07/24 10:51:28;;;;;;;;;;;;;;;20.31;57.98;98438.03;10332536;28;814;-65
2023/07/24 10:56:23;;;;;;;;;;;;;;;20.32;58.19;98439.72;10331752;28;968;-65
2023/07/24 11:01:19;;;;;;;;;;;;;;;20.31;58.11;98432.75;10331517;28;1886;-66
2023/07/24 11:06:15;;;;;;;;;;;;;;;20.30;58.25;98439.84;10330836;28;865;-66
2023/07/24 11:11:12;;;;;;;;;;;;;;;20.31;58.10;98425.66;10331356;28;851;-69
2023/07/24 11:16:08;;;;;;;;;;;;;;;20.33;58.01;98420.22;10332325;28;1605;-66
2023/07/24 11:21:05;;;;;;;;;;;;;;;20.30;58.19;98420.47;10331287;28;1970;-66
2023/07/24 11:26:03;;;;;;;;;;;;;;;20.25;58.19;98412.88;10330679;28;805;-67
2023/07/24 11:30:59;;;;;;;;;;;;;;;20.24;58.36;98418.28;10330404;28;1308;-66
2023/07/24 11:35:56;;;;;;;;;;;;;;;20.23;58.27;98406.03;10330329;28;834;-66
2023/07/24 11:40:52;;;;;;;;;;;;;;;20.26;58.26;98393.41;10330972;28;1910;-66
2023/07/24 11:45:54;;;;;;;;;;;;;;;20.32;57.97;98386.81;10329256;28;825;-66
2023/07/24 11:50:49;;;;;;;;;;;;;;;20.36;57.87;98367.09;10330301;28;868;-66
2023/07/24 11:55:45;;;;;;;;;;;;;;;20.31;58.08;98348.91;10330799;28;877;-66
2023/07/24 12:00:41;;;;;;;;;;;;;;;20.25;58.09;98333.50;10328667;28;2024;-66
2023/07/24 12:05:37;;;;;;;;;;;;;;;20.21;58.24;98334.69;10329088;28;758;-66
2023/07/24 12:10:33;;;;;;;;;;;;;;;20.20;58.27;98342.72;10329623;28;976;-66
2023/07/24 12:15:29;;;;;;;;;;;;;;;20.19;58.21;98347.19;10329164;28;878;-65
2023/07/24 12:20:25;;;;;;;;;;;;;;;20.17;58.44;98335.03;10328530;28;1964;-66
2023/07/24 12:25:21;;;;;;;;;;;;;;;20.16;58.40;98331.56;10328874;28;829;-65
2023/07/24 12:30:17;;;;;;;;;;;;;;;20.15;58.45;98319.28;10328193;28;1337;-66
2023/07/24 12:35:12;;;;;;;;;;;;;;;20.14;58.46;98370.50;10328664;28;818;-66
2023/07/24 12:40:08;;;;;;;;;;;;;;;20.13;58.59;98425.22;10327686;28;2030;-66
2023/07/24 12:45:04;;;;;;;;;;;;;;;20.13;58.55;98427.03;10328202;28;790;-66
2023/07/24 12:50:00;;;;;;;;;;;;;;;20.13;58.67;98448.19;10327405;28;757;-66
2023/07/24 12:54:56;;;;;;;;;;;;;;;20.14;58.56;98461.28;10326596;28;924;-66
2023/07/24 12:59:52;;;;;;;;;;;;;;;20.14;58.61;98436.63;10326850;28;1949;-66
2023/07/24 13:04:48;;;;;;;;;;;;;;;20.21;58.46;98426.47;10327612;28;856;-66
2023/07/24 13:09:44;;;;;;;;;;;;;;;20.22;58.21;98391.94;10326546;28;891;-66
2023/07/24 13:14:39;;;;;;;;;;;;;;;20.30;58.05;98402.81;10326596;28;925;-65
2023/07/24 13:19:35;;;;;;;;;;;;;;;20.28;57.95;98369.47;10326203;28;1893;-66
2023/07/24 13:24:31;;;;;;;;;;;;;;;20.25;58.10;98367.91;10326124;28;916;-66
2023/07/24 13:29:27;;;;;;;;;;;;;;;20.27;58.09;98383.66;10326658;28;922;-66
2023/07/24 13:34:23;;;;;;;;;;;;;;;20.29;58.09;98379.94;10326458;28;1553;-65
2023/07/24 13:39:19;;;;;;;;;;;;;;;20.26;58.02;98382.81;10326279;28;2036;-66
2023/07/24 13:44:15;;;;;;;;;;;;;;;20.25;58.01;98389.09;10326294;28;880;-66
2023/07/24 13:49:11;;;;;;;;;;;;;;;20.27;57.98;98384.50;10325736;28;872;-66
2023/07/24 13:54:06;;;;;;;;;;;;;;;20.29;57.99;98390.53;10325899;28;858;-65
2023/07/24 13:59:03;;;;;;;;;;;;;;;20.27;58.13;98368.63;10325309;28;1964;-67
2023/07/24 14:04:00;;;;;;;;;;;;;;;20.26;58.08;98344.94;10324932;28;1156;-66
2023/07/24 14:08:56;;;;;;;;;;;;;;;20.26;58.16;98340.47;10328598;28;801;-66
2023/07/24 14:13:52;;;;;;;;;;;;;;;20.31;57.99;98327.75;10333571;28;770;-66
2023/07/24 14:18:47;;;;;;;;;;;;;;;20.46;57.34;98316.94;10333898;28;1953;-66
2023/07/24 14:23:43;;;;;;;;;;;;;;;20.49;57.37;98319.38;10333126;28;968;-66
2023/07/24 14:28:39;;;;;;;;;;;;;;;20.40;57.42;98317.41;10333612;28;935;-66
2023/07/24 14:33:35;;;;;;;;;;;;;;;20.50;57.22;98316.59;10332538;28;1137;-66
2023/07/24 14:38:31;;;;;;;;;;;;;;;20.45;57.35;98321.38;10332367;28;1973;-66
2023/07/24 14:43:27;;;;;;;;;;;;;;;20.43;57.49;98322.47;10333283;28;856;-66
2023/07/24 14:48:23;;;;;;;;;;;;;;;20.64;56.93;98323.47;10332703;28;806;-66
2023/07/24 14:53:18;;;;;;;;;;;;;;;20.72;56.87;98320.25;10332561;28;853;-66
2023/07/24 14:58:14;;;;;;;;;;;;;;;20.74;56.71;98307.72;10313742;28;1889;-66
2023/07/24 15:03:10;;;;;;;;;;;;;;;20.60;57.03;98308.81;10330682;28;1075;-66
2023/07/24 15:08:06;;;;;;;;;;;;;;;20.50;57.27;98313.94;10331457;28;774;-66
2023/07/24 15:13:02;;;;;;;;;;;;;;;20.85;56.54;98304.22;10331128;28;806;-66
2023/07/24 15:17:58;;;;;;;;;;;;;;;21.00;56.11;98298.56;10331379;28;1898;-66
2023/07/24 15:22:54;;;;;;;;;;;;;;;20.99;56.21;98301.34;10329700;28;882;-67
2023/07/24 15:27:50;;;;;;;;;;;;;;;20.66;57.06;98302.19;10330874;28;790;-66
2023/07/24 15:32:46;;;;;;;;;;;;;;;20.55;57.34;98313.63;10329678;28;1424;-65
2023/07/24 15:37:41;;;;;;;;;;;;;;;20.49;57.37;98322.84;10330197;28;1906;-64
2023/07/24 15:42:37;;;;;;;;;;;;;;;20.46;57.59;98343.41;10330884;28;921;-64
2023/07/24 15:47:33;;;;;;;;;;;;;;;20.44;57.52;98361.22;10329328;28;814;-66
2023/07/24 15:52:29;;;;;;;;;;;;;;;20.43;57.40;98343.63;10330414;28;786;-66
2023/07/24 15:57:25;;;;;;;;;;;;;;;20.44;57.52;98334.75;10329506;28;1893;-68
2023/07/24 16:02:21;;;;;;;;;;;;;;;20.46;57.51;98343.41;10330024;28;882;-65
2023/07/24 16:07:17;;;;;;;;;;;;;;;20.47;57.61;98364.47;10329183;28;842;-66
2023/07/24 16:12:13;;;;;;;;;;;;;;;20.46;57.71;98353.97;10329360;28;842;-68
2023/07/24 16:17:09;;;;;;;;;;;;;;;20.49;57.59;98338.72;10328788;28;1898;-66
2023/07/24 16:22:05;;;;;;;;;;;;;;;20.46;57.68;98338.09;10328589;28;787;-66
2023/07/24 16:27:04;;;;;;;;;;;;;;;20.45;57.59;98357.59;10328298;28;911;-66
2023/07/24 16:32:00;;;;;;;;;;;;;;;20.45;57.60;98350.50;10327919;28;1278;-66
2023/07/24 16:36:56;;;;;;;;;;;;;;;20.44;57.62;98353.28;10327936;28;1914;-65
2023/07/24 16:41:52;;;;;;;;;;;;;;;20.42;57.66;98353.38;10327770;28;771;-65
2023/07/24 16:46:48;;;;;;;;;;;;;;;20.42;57.73;98342.81;10327434;28;958;-66
2023/07/24 16:51:43;;;;;;;;;;;;;;;20.42;57.75;98352.56;10327966;28;794;-65
2023/07/24 16:56:40;;;;;;;;;;;;;;;20.38;57.85;98367.78;10327805;28;904;-66
2023/07/24 17:01:36;;;;;;;;;;;;;;;20.36;57.99;98372.38;10326911;28;1965;-66
2023/07/24 17:06:32;;;;;;;;;;;;;;;20.34;57.89;98392.81;10327337;28;926;-66
2023/07/24 17:11:28;;;;;;;;;;;;;;;20.38;57.95;98393.44;10327430;28;863;-66
2023/07/24 17:16:24;;;;;;;;;;;;;;;20.40;57.78;98404.75;10327215;28;833;-66
2023/07/24 17:21:20;;;;;;;;;;;;;;;20.38;57.78;98410.13;10326254;28;1906;-64
2023/07/24 17:26:16;;;;;;;;;;;;;;;20.38;58.02;98415.44;10326124;28;872;-66
2023/07/24 17:31:11;;;;;;;;;;;;;;;20.39;57.83;98416.31;10326433;28;1124;-66
2023/07/24 17:36:07;;;;;;;;;;;;;;;20.38;57.83;98430.47;10327187;28;857;-66
2023/07/24 17:41:04;;;;;;;;;;;;;;;20.38;57.88;98435.78;10325763;28;1918;-65
2023/07/24 17:45:59;;;;;;;;;;;;;;;20.36;57.78;98434.09;10324949;28;947;-66
2023/07/24 17:50:57;;;;;;;;;;;;;;;20.35;57.75;98456.19;10326168;28;793;-66
2023/07/24 17:55:53;;;;;;;;;;;;;;;20.36;58.06;98455.25;10326066;28;912;-65
2023/07/24 18:00:48;;;;;;;;;;;;;;;20.37;57.71;98464.03;10326132;28;1902;-65
2023/07/24 18:05:44;;;;;;;;;;;;;;;20.38;57.86;98464.88;10325383;28;940;-66
2023/07/24 18:10:40;;;;;;;;;;;;;;;20.36;57.97;98478.25;10325555;28;866;-66
2023/07/24 18:15:36;;;;;;;;;;;;;;;20.34;57.76;98467.75;10325089;28;774;-65
2023/07/24 18:20:32;;;;;;;;;;;;;;;20.32;57.97;98474.97;10325676;28;1902;-65
2023/07/24 18:25:28;;;;;;;;;;;;;;;20.30;58.07;98484.84;10324921;28;948;-65
2023/07/24 18:30:28;;;;;;;;;;;;;;;20.29;57.85;98487.59;10324517;28;1536;-65
2023/07/24 18:35:24;;;;;;;;;;;;;;;20.32;57.96;98490.00;10324736;28;786;-65
2023/07/24 18:40:20;;;;;;;;;;;;;;;20.27;57.92;98498.28;10326001;28;1982;-66
2023/07/24 18:45:16;;;;;;;;;;;;;;;20.26;57.92;98503.69;10323907;28;917;-66
2023/07/24 18:50:12;;;;;;;;;;;;;;;20.24;57.98;98498.50;10325060;28;840;-65
2023/07/24 18:55:08;;;;;;;;;;;;;;;20.23;58.16;98504.75;10328209;28;863;-65
2023/07/24 19:00:04;;;;;;;;;;;;;;;20.22;57.99;98515.44;10331670;28;1905;-65
2023/07/24 19:04:59;;;;;;;;;;;;;;;20.21;57.97;98525.19;10331572;28;871;-65
2023/07/24 19:09:55;;;;;;;;;;;;;;;20.20;58.05;98528.81;10331593;28;958;-65
2023/07/24 19:14:51;;;;;;;;;;;;;;;20.19;57.94;98545.63;10313200;28;1078;-66
2023/07/24 19:19:47;;;;;;;;;;;;;;;20.19;58.14;98553.56;10330961;28;1955;-65
2023/07/24 19:24:43;;;;;;;;;;;;;;;20.17;57.87;98549.31;10330856;28;782;-65
2023/07/24 19:29:39;;;;;;;;;;;;;;;20.16;57.95;98564.34;10331186;28;1192;-66
2023/07/24 19:34:35;;;;;;;;;;;;;;;20.16;58.02;98574.94;10331147;28;940;-64
2023/07/24 19:39:30;;;;;;;;;;;;;;;20.15;58.13;98583.84;10330467;28;1981;-65
2023/07/24 19:44:26;;;;;;;;;;;;;;;20.13;58.03;98588.41;10330211;28;739;-65
2023/07/24 19:49:22;;;;;;;;;;;;;;;20.14;58.12;98593.56;10329249;28;1235;-65
2023/07/24 19:54:18;;;;;;;;;;;;;;;20.12;57.93;98602.56;10329793;28;851;-65
2023/07/24 19:59:14;;;;;;;;;;;;;;;20.11;58.05;98606.16;10330404;28;1898;-65
2023/07/24 20:04:10;;;;;;;;;;;;;;;20.12;58.13;98621.06;10329449;28;772;-65
2023/07/24 20:09:08;;;;;;;;;;;;;;;20.10;58.01;98623.84;10329067;28;830;-65
2023/07/24 20:14:05;;;;;;;;;;;;;;;20.10;57.97;98626.50;10329478;28;989;-65
2023/07/24 20:19:00;;;;;;;;;;;;;;;20.09;57.96;98630.06;10328742;28;1953;-65
2023/07/24 20:23:56;;;;;;;;;;;;;;;20.08;57.97;98631.03;10329259;28;834;-65
2023/07/24 20:28:52;;;;;;;;;;;;;;;20.09;57.99;98638.00;10327758;28;964;-65
2023/07/24 20:33:48;;;;;;;;;;;;;;;20.08;57.94;98638.97;10329295;28;1168;-65
2023/07/24 20:38:44;;;;;;;;;;;;;;;20.08;58.02;98633.69;10327891;28;1971;-65
2023/07/24 20:43:40;;;;;;;;;;;;;;;20.07;57.97;98645.22;10327811;28;850;-65
2023/07/24 20:48:36;;;;;;;;;;;;;;;20.07;57.90;98639.09;10326913;28;897;-65
2023/07/24 20:53:32;;;;;;;;;;;;;;;20.06;57.97;98637.41;10327969;28;909;-65
2023/07/24 20:58:27;;;;;;;;;;;;;;;20.05;58.02;98644.50;10327694;28;1894;-65
2023/07/24 21:03:23;;;;;;;;;;;;;;;20.05;57.96;98647.13;10327765;28;1023;-65
2023/07/24 21:08:19;;;;;;;;;;;;;;;20.04;57.96;98649.88;10327419;28;837;-65
2023/07/24 21:13:15;;;;;;;;;;;;;;;20.04;57.96;98661.31;10326011;28;901;-65
2023/07/24 21:18:11;;;;;;;;;;;;;;;20.03;58.06;98659.63;10325746;28;1890;-65
2023/07/24 21:23:07;;;;;;;;;;;;;;;20.03;57.96;98659.63;10326308;28;787;-65
2023/07/24 21:28:03;;;;;;;;;;;;;;;20.03;57.96;98666.72;10327395;28;858;-65
2023/07/24 21:32:59;;;;;;;;;;;;;;;20.03;57.94;98664.06;10326128;28;1279;-65
2023/07/24 21:37:55;;;;;;;;;;;;;;;20.02;57.85;98663.22;10326024;28;1898;-65
2023/07/24 21:42:50;;;;;;;;;;;;;;;20.02;58.05;98673.81;10325993;28;1031;-65
2023/07/24 21:47:46;;;;;;;;;;;;;;;20.02;57.84;98670.31;10326239;28;859;-65
2023/07/24 21:52:45;;;;;;;;;;;;;;;20.02;57.94;98662.38;10325520;28;876;-65
2023/07/24 21:57:41;;;;;;;;;;;;;;;20.01;57.82;98671.25;10326009;28;1894;-65
2023/07/24 22:02:37;;;;;;;;;;;;;;;20.00;57.86;98681.00;10326008;28;759;-65
2023/07/24 22:07:33;;;;;;;;;;;;;;;20.00;57.97;98682.81;10325848;28;790;-65
2023/07/24 22:12:29;;;;;;;;;;;;;;;20.00;57.83;98690.72;10325198;28;857;-65
2023/07/24 22:17:27;;;;;;;;;;;;;;;20.00;57.90;98694.22;10325052;28;1955;-65
2023/07/24 22:22:23;;;;;;;;;;;;;;;20.00;58.03;98690.72;10324995;28;870;-65
2023/07/24 22:27:19;;;;;;;;;;;;;;;20.00;57.83;98690.72;10324226;28;888;-68
2023/07/24 22:32:15;;;;;;;;;;;;;;;19.98;57.84;98682.88;10331957;28;1104;-69
2023/07/24 22:37:10;;;;;;;;;;;;;;;19.98;57.85;98682.06;10333266;28;1910;-69
2023/07/24 22:42:06;;;;;;;;;;;;;;;19.97;57.90;98689.16;10331911;28;1016;-68
2023/07/24 22:47:02;;;;;;;;;;;;;;;19.97;57.88;98691.78;10332493;28;771;-68
2023/07/24 22:51:58;;;;;;;;;;;;;;;19.95;57.92;98693.69;10332737;28;798;-68
2023/07/24 22:56:54;;;;;;;;;;;;;;;19.95;57.85;98692.84;10331910;28;908;-68
2023/07/24 23:01:50;;;;;;;;;;;;;;;19.95;57.97;98709.56;10332433;28;1953;-68
2023/07/24 23:06:46;;;;;;;;;;;;;;;19.95;57.75;98703.44;10332419;28;785;-68
2023/07/24 23:11:42;;;;;;;;;;;;;;;19.94;57.83;98705.22;10331987;28;885;-68
2023/07/24 23:16:38;;;;;;;;;;;;;;;19.93;57.64;98712.28;10331732;28;995;-68
2023/07/24 23:21:33;;;;;;;;;;;;;;;19.93;57.72;98707.00;10331581;28;1910;-68
2023/07/24 23:26:29;;;;;;;;;;;;;;;19.92;57.87;98710.63;10330869;28;996;-68
2023/07/24 23:31:25;;;;;;;;;;;;;;;19.92;57.71;98702.69;10330268;28;1373;-68
2023/07/24 23:36:21;;;;;;;;;;;;;;;19.91;57.58;98708.94;10330914;28;912;-68
2023/07/24 23:41:17;;;;;;;;;;;;;;;19.92;57.70;98717.72;10329133;28;1918;-68
2023/07/24 23:46:13;;;;;;;;;;;;;;;19.91;57.86;98710.72;10330814;28;1004;-68
2023/07/24 23:51:09;;;;;;;;;;;;;;;19.91;57.67;98718.63;10330471;28;823;-69
2023/07/24 23:56:05;;;;;;;;;;;;;;;19.90;57.70;98716.97;10329168;28;913;-68
